sensor_id;sensor_type;location;lat;lon;timestamp;P1;durP1;ratioP1;P2;durP2;ratioP2
84187;SDS011;74316;45.648;13.764;2024-01-10T00:01:47;11.48;;;5.60;;
84187;SDS011;74316;45.648;13.764;2024-01-10T00:04:13;9.05;;;5.90;;
84187;SDS011;74316;45.648;13.764;2024-01-10T00:06:41;12.00;;;6.13;;
84187;SDS011;74316;45.648;13.764;2024-01-10T00:09:07;11.52;;;6.32;;
84187;SDS011;74316;45.648;13.764;2024-01-10T00:11:33;9.27;;;5.78;;
84187;SDS011;74316;45.648;13.764;2024-01-10T00:13:58;7.40;;;5.75;;
84187;SDS011;74316;45.648;13.764;2024-01-10T00:16:27;5.82;;;4.97;;
84187;SDS011;74316;45.648;13.764;2024-01-10T00:18:53;11.20;;;5.55;;
84187;SDS011;74316;45.648;13.764;2024-01-10T00:21:19;10.73;;;5.53;;
84187;SDS011;74316;45.648;13.764;2024-01-10T00:23:46;9.35;;;5.43;;
84187;SDS011;74316;45.648;13.764;2024-01-10T00:26:12;9.60;;;5.57;;
84187;SDS011;74316;45.648;13.764;2024-01-10T00:28:37;10.88;;;5.88;;
84187;SDS011;74316;45.648;13.764;2024-01-10T00:31:03;13.63;;;6.38;;
84187;SDS011;74316;45.648;13.764;2024-01-10T00:33:29;8.63;;;5.68;;
84187;SDS011;74316;45.648;13.764;2024-01-10T00:35:55;9.75;;;6.00;;
84187;SDS011;74316;45.648;13.764;2024-01-10T00:38:21;7.00;;;5.43;;
84187;SDS011;74316;45.648;13.764;2024-01-10T00:40:47;9.88;;;6.38;;
84187;SDS011;74316;45.648;13.764;2024-01-10T00:43:12;7.75;;;5.55;;
84187;SDS011;74316;45.648;13.764;2024-01-10T00:45:38;8.60;;;5.53;;
84187;SDS011;74316;45.648;13.764;2024-01-10T00:48:05;7.13;;;5.88;;
84187;SDS011;74316;45.648;13.764;2024-01-10T00:50:31;6.88;;;5.53;;
84187;SDS011;74316;45.648;13.764;2024-01-10T00:52:56;10.30;;;6.25;;
84187;SDS011;74316;45.648;13.764;2024-01-10T00:55:23;7.80;;;5.97;;
84187;SDS011;74316;45.648;13.764;2024-01-10T00:57:49;8.43;;;5.70;;
84187;SDS011;74316;45.648;13.764;2024-01-10T01:00:15;7.07;;;5.78;;
84187;SDS011;74316;45.648;13.764;2024-01-10T01:02:41;7.22;;;5.68;;
84187;SDS011;74316;45.648;13.764;2024-01-10T01:05:07;6.63;;;5.68;;
84187;SDS011;74316;45.648;13.764;2024-01-10T01:07:33;8.98;;;5.90;;
84187;SDS011;74316;45.648;13.764;2024-01-10T01:09:58;6.88;;;5.40;;
84187;SDS011;74316;45.648;13.764;2024-01-10T01:12:24;7.47;;;5.97;;
84187;SDS011;74316;45.648;13.764;2024-01-10T01:14:50;6.20;;;5.60;;
84187;SDS011;74316;45.648;13.764;2024-01-10T01:17:16;12.07;;;6.00;;
84187;SDS011;74316;45.648;13.764;2024-01-10T01:19:42;11.10;;;5.90;;
84187;SDS011;74316;45.648;13.764;2024-01-10T01:22:08;9.25;;;5.90;;
84187;SDS011;74316;45.648;13.764;2024-01-10T01:24:34;10.73;;;5.90;;
84187;SDS011;74316;45.648;13.764;2024-01-10T01:27:00;8.75;;;5.95;;
84187;SDS011;74316;45.648;13.764;2024-01-10T01:29:25;8.68;;;5.55;;
84187;SDS011;74316;45.648;13.764;2024-01-10T01:31:53;8.07;;;6.25;;
84187;SDS011;74316;45.648;13.764;2024-01-10T01:34:19;8.63;;;5.55;;
84187;SDS011;74316;45.648;13.764;2024-01-10T01:36:45;8.45;;;6.10;;
84187;SDS011;74316;45.648;13.764;2024-01-10T01:39:11;5.93;;;5.32;;
84187;SDS011;74316;45.648;13.764;2024-01-10T01:41:38;8.65;;;6.03;;
84187;SDS011;74316;45.648;13.764;2024-01-10T01:44:04;6.72;;;5.63;;
84187;SDS011;74316;45.648;13.764;2024-01-10T01:46:31;6.43;;;5.68;;
84187;SDS011;74316;45.648;13.764;2024-01-10T01:48:58;7.32;;;5.45;;
84187;SDS011;74316;45.648;13.764;2024-01-10T01:51:24;8.40;;;5.75;;
84187;SDS011;74316;45.648;13.764;2024-01-10T01:53:53;6.25;;;5.65;;
84187;SDS011;74316;45.648;13.764;2024-01-10T01:56:18;6.68;;;5.30;;
84187;SDS011;74316;45.648;13.764;2024-01-10T01:58:44;6.95;;;5.50;;
84187;SDS011;74316;45.648;13.764;2024-01-10T02:01:11;9.43;;;6.38;;
84187;SDS011;74316;45.648;13.764;2024-01-10T02:03:37;6.97;;;5.65;;
84187;SDS011;74316;45.648;13.764;2024-01-10T02:06:03;10.52;;;6.05;;
84187;SDS011;74316;45.648;13.764;2024-01-10T02:08:30;6.90;;;5.30;;
84187;SDS011;74316;45.648;13.764;2024-01-10T02:10:57;7.55;;;5.82;;
84187;SDS011;74316;45.648;13.764;2024-01-10T02:13:23;5.72;;;5.10;;
84187;SDS011;74316;45.648;13.764;2024-01-10T02:15:49;8.63;;;5.93;;
84187;SDS011;74316;45.648;13.764;2024-01-10T02:18:15;8.90;;;6.03;;
84187;SDS011;74316;45.648;13.764;2024-01-10T02:20:44;7.88;;;5.82;;
84187;SDS011;74316;45.648;13.764;2024-01-10T02:23:11;9.63;;;5.63;;
84187;SDS011;74316;45.648;13.764;2024-01-10T02:25:36;6.95;;;5.28;;
84187;SDS011;74316;45.648;13.764;2024-01-10T02:28:03;7.57;;;5.82;;
84187;SDS011;74316;45.648;13.764;2024-01-10T02:30:29;5.97;;;5.25;;
84187;SDS011;74316;45.648;13.764;2024-01-10T02:32:55;7.65;;;5.43;;
84187;SDS011;74316;45.648;13.764;2024-01-10T02:35:21;6.32;;;5.65;;
84187;SDS011;74316;45.648;13.764;2024-01-10T02:37:47;8.50;;;5.55;;
84187;SDS011;74316;45.648;13.764;2024-01-10T02:40:16;12.77;;;5.97;;
84187;SDS011;74316;45.648;13.764;2024-01-10T02:42:42;5.75;;;5.10;;
84187;SDS011;74316;45.648;13.764;2024-01-10T02:45:08;5.78;;;5.18;;
84187;SDS011;74316;45.648;13.764;2024-01-10T02:47:35;6.75;;;5.57;;
84187;SDS011;74316;45.648;13.764;2024-01-10T02:50:04;6.65;;;5.50;;
84187;SDS011;74316;45.648;13.764;2024-01-10T02:52:31;8.90;;;5.40;;
84187;SDS011;74316;45.648;13.764;2024-01-10T02:54:57;5.70;;;5.00;;
84187;SDS011;74316;45.648;13.764;2024-01-10T02:57:23;6.90;;;6.20;;
84187;SDS011;74316;45.648;13.764;2024-01-10T02:59:49;6.47;;;5.53;;
84187;SDS011;74316;45.648;13.764;2024-01-10T03:02:15;7.03;;;5.35;;
84187;SDS011;74316;45.648;13.764;2024-01-10T03:04:41;6.45;;;5.38;;
84187;SDS011;74316;45.648;13.764;2024-01-10T03:07:07;6.53;;;5.93;;
84187;SDS011;74316;45.648;13.764;2024-01-10T03:09:33;6.45;;;5.65;;
84187;SDS011;74316;45.648;13.764;2024-01-10T03:11:59;7.30;;;5.97;;
84187;SDS011;74316;45.648;13.764;2024-01-10T03:14:25;7.32;;;5.75;;
84187;SDS011;74316;45.648;13.764;2024-01-10T03:16:52;7.55;;;5.90;;
84187;SDS011;74316;45.648;13.764;2024-01-10T03:19:18;7.90;;;5.35;;
84187;SDS011;74316;45.648;13.764;2024-01-10T03:21:44;7.15;;;6.32;;
84187;SDS011;74316;45.648;13.764;2024-01-10T03:24:10;6.07;;;5.47;;
84187;SDS011;74316;45.648;13.764;2024-01-10T03:26:35;7.90;;;5.93;;
84187;SDS011;74316;45.648;13.764;2024-01-10T03:29:00;6.90;;;5.88;;
84187;SDS011;74316;45.648;13.764;2024-01-10T03:31:30;6.85;;;6.15;;
84187;SDS011;74316;45.648;13.764;2024-01-10T03:33:57;6.72;;;5.30;;
84187;SDS011;74316;45.648;13.764;2024-01-10T03:36:23;6.70;;;5.63;;
84187;SDS011;74316;45.648;13.764;2024-01-10T03:38:49;7.65;;;6.07;;
84187;SDS011;74316;45.648;13.764;2024-01-10T03:41:16;5.82;;;5.32;;
84187;SDS011;74316;45.648;13.764;2024-01-10T03:43:43;6.40;;;5.45;;
84187;SDS011;74316;45.648;13.764;2024-01-10T03:46:09;5.55;;;5.05;;
84187;SDS011;74316;45.648;13.764;2024-01-10T03:48:36;6.15;;;5.65;;
84187;SDS011;74316;45.648;13.764;2024-01-10T03:51:02;7.10;;;6.28;;
84187;SDS011;74316;45.648;13.764;2024-01-10T03:53:28;6.75;;;6.15;;
84187;SDS011;74316;45.648;13.764;2024-01-10T03:55:55;9.20;;;6.22;;
84187;SDS011;74316;45.648;13.764;2024-01-10T03:58:21;6.75;;;5.38;;
84187;SDS011;74316;45.648;13.764;2024-01-10T04:00:47;11.48;;;6.32;;
84187;SDS011;74316;45.648;13.764;2024-01-10T04:03:13;10.85;;;6.32;;
84187;SDS011;74316;45.648;13.764;2024-01-10T04:05:40;9.20;;;6.18;;
84187;SDS011;74316;45.648;13.764;2024-01-10T04:08:07;6.95;;;6.22;;
84187;SDS011;74316;45.648;13.764;2024-01-10T04:10:32;6.50;;;5.90;;
84187;SDS011;74316;45.648;13.764;2024-01-10T04:12:58;7.63;;;5.35;;
84187;SDS011;74316;45.648;13.764;2024-01-10T04:15:24;7.50;;;6.50;;
84187;SDS011;74316;45.648;13.764;2024-01-10T04:17:51;6.15;;;5.60;;
84187;SDS011;74316;45.648;13.764;2024-01-10T04:20:17;9.40;;;5.78;;
84187;SDS011;74316;45.648;13.764;2024-01-10T04:22:43;7.55;;;5.70;;
84187;SDS011;74316;45.648;13.764;2024-01-10T04:25:10;6.35;;;5.40;;
84187;SDS011;74316;45.648;13.764;2024-01-10T04:27:36;5.85;;;5.30;;
84187;SDS011;74316;45.648;13.764;2024-01-10T04:30:02;5.65;;;5.13;;
84187;SDS011;74316;45.648;13.764;2024-01-10T04:32:28;6.60;;;6.03;;
84187;SDS011;74316;45.648;13.764;2024-01-10T04:34:54;7.63;;;5.88;;
84187;SDS011;74316;45.648;13.764;2024-01-10T04:37:21;8.38;;;6.25;;
84187;SDS011;74316;45.648;13.764;2024-01-10T04:39:47;6.75;;;5.95;;
84187;SDS011;74316;45.648;13.764;2024-01-10T04:42:13;6.30;;;5.70;;
84187;SDS011;74316;45.648;13.764;2024-01-10T04:44:39;7.18;;;5.55;;
84187;SDS011;74316;45.648;13.764;2024-01-10T04:47:07;6.35;;;5.70;;
84187;SDS011;74316;45.648;13.764;2024-01-10T04:49:33;7.63;;;5.80;;
84187;SDS011;74316;45.648;13.764;2024-01-10T04:51:59;7.97;;;6.22;;
84187;SDS011;74316;45.648;13.764;2024-01-10T04:54:25;9.68;;;6.57;;
84187;SDS011;74316;45.648;13.764;2024-01-10T04:56:51;8.88;;;6.10;;
84187;SDS011;74316;45.648;13.764;2024-01-10T04:59:17;6.78;;;5.43;;
84187;SDS011;74316;45.648;13.764;2024-01-10T05:01:43;6.68;;;5.70;;
84187;SDS011;74316;45.648;13.764;2024-01-10T05:04:08;7.00;;;6.10;;
84187;SDS011;74316;45.648;13.764;2024-01-10T05:06:34;6.25;;;5.65;;
84187;SDS011;74316;45.648;13.764;2024-01-10T05:09:00;7.28;;;5.57;;
84187;SDS011;74316;45.648;13.764;2024-01-10T05:11:26;6.10;;;5.50;;
84187;SDS011;74316;45.648;13.764;2024-01-10T05:13:52;6.40;;;5.20;;
84187;SDS011;74316;45.648;13.764;2024-01-10T05:16:18;5.00;;;4.60;;
84187;SDS011;74316;45.648;13.764;2024-01-10T05:18:44;7.07;;;5.40;;
84187;SDS011;74316;45.648;13.764;2024-01-10T05:21:10;5.53;;;5.00;;
84187;SDS011;74316;45.648;13.764;2024-01-10T05:23:35;7.53;;;5.35;;
84187;SDS011;74316;45.648;13.764;2024-01-10T05:26:03;10.57;;;5.60;;
84187;SDS011;74316;45.648;13.764;2024-01-10T05:28:29;6.15;;;5.28;;
84187;SDS011;74316;45.648;13.764;2024-01-10T05:30:55;8.30;;;5.50;;
84187;SDS011;74316;45.648;13.764;2024-01-10T05:33:21;4.85;;;4.40;;
84187;SDS011;74316;45.648;13.764;2024-01-10T05:35:53;7.50;;;4.97;;
84187;SDS011;74316;45.648;13.764;2024-01-10T05:38:20;5.82;;;5.05;;
84187;SDS011;74316;45.648;13.764;2024-01-10T05:40:46;10.30;;;5.00;;
84187;SDS011;74316;45.648;13.764;2024-01-10T05:43:11;10.35;;;5.25;;
84187;SDS011;74316;45.648;13.764;2024-01-10T05:45:37;7.40;;;5.13;;
84187;SDS011;74316;45.648;13.764;2024-01-10T05:48:03;7.20;;;5.47;;
84187;SDS011;74316;45.648;13.764;2024-01-10T05:50:30;5.40;;;4.90;;
84187;SDS011;74316;45.648;13.764;2024-01-10T05:52:55;6.57;;;5.40;;
84187;SDS011;74316;45.648;13.764;2024-01-10T05:55:22;10.93;;;5.22;;
84187;SDS011;74316;45.648;13.764;2024-01-10T05:57:48;10.75;;;5.55;;
84187;SDS011;74316;45.648;13.764;2024-01-10T06:00:14;6.88;;;5.15;;
84187;SDS011;74316;45.648;13.764;2024-01-10T06:02:41;9.02;;;5.30;;
84187;SDS011;74316;45.648;13.764;2024-01-10T06:05:08;12.27;;;5.07;;
84187;SDS011;74316;45.648;13.764;2024-01-10T06:07:39;9.32;;;5.25;;
84187;SDS011;74316;45.648;13.764;2024-01-10T06:10:25;10.90;;;5.20;;
84187;SDS011;74316;45.648;13.764;2024-01-10T06:12:51;6.25;;;4.90;;
84187;SDS011;74316;45.648;13.764;2024-01-10T06:15:16;7.47;;;5.25;;
84187;SDS011;74316;45.648;13.764;2024-01-10T06:17:42;8.90;;;5.05;;
84187;SDS011;74316;45.648;13.764;2024-01-10T06:20:08;8.80;;;5.30;;
84187;SDS011;74316;45.648;13.764;2024-01-10T06:22:34;12.25;;;5.40;;
84187;SDS011;74316;45.648;13.764;2024-01-10T06:25:00;19.35;;;5.50;;
84187;SDS011;74316;45.648;13.764;2024-01-10T06:27:26;17.33;;;5.78;;
84187;SDS011;74316;45.648;13.764;2024-01-10T06:29:52;10.20;;;5.68;;
84187;SDS011;74316;45.648;13.764;2024-01-10T06:32:18;14.32;;;5.15;;
84187;SDS011;74316;45.648;13.764;2024-01-10T06:34:44;12.02;;;5.38;;
84187;SDS011;74316;45.648;13.764;2024-01-10T06:37:10;14.68;;;5.50;;
84187;SDS011;74316;45.648;13.764;2024-01-10T06:39:36;11.95;;;5.40;;
84187;SDS011;74316;45.648;13.764;2024-01-10T06:42:02;12.55;;;5.75;;
84187;SDS011;74316;45.648;13.764;2024-01-10T06:44:31;14.93;;;5.45;;
84187;SDS011;74316;45.648;13.764;2024-01-10T06:46:56;19.42;;;5.65;;
84187;SDS011;74316;45.648;13.764;2024-01-10T06:49:22;9.88;;;5.38;;
84187;SDS011;74316;45.648;13.764;2024-01-10T06:51:48;17.70;;;5.47;;
84187;SDS011;74316;45.648;13.764;2024-01-10T06:54:14;17.75;;;5.22;;
84187;SDS011;74316;45.648;13.764;2024-01-10T06:56:40;15.32;;;6.05;;
84187;SDS011;74316;45.648;13.764;2024-01-10T06:59:06;10.60;;;5.57;;
84187;SDS011;74316;45.648;13.764;2024-01-10T07:01:32;12.55;;;5.50;;
84187;SDS011;74316;45.648;13.764;2024-01-10T07:03:58;16.15;;;5.82;;
84187;SDS011;74316;45.648;13.764;2024-01-10T07:06:24;10.50;;;5.35;;
84187;SDS011;74316;45.648;13.764;2024-01-10T07:08:50;13.60;;;5.90;;
84187;SDS011;74316;45.648;13.764;2024-01-10T07:11:16;10.25;;;5.20;;
84187;SDS011;74316;45.648;13.764;2024-01-10T07:13:42;10.55;;;5.05;;
84187;SDS011;74316;45.648;13.764;2024-01-10T07:16:09;17.80;;;5.50;;
84187;SDS011;74316;45.648;13.764;2024-01-10T07:18:35;11.98;;;5.93;;
84187;SDS011;74316;45.648;13.764;2024-01-10T07:21:01;18.05;;;5.45;;
84187;SDS011;74316;45.648;13.764;2024-01-10T07:23:28;12.35;;;5.28;;
84187;SDS011;74316;45.648;13.764;2024-01-10T07:25:53;15.10;;;5.43;;
84187;SDS011;74316;45.648;13.764;2024-01-10T07:28:19;10.48;;;5.70;;
84187;SDS011;74316;45.648;13.764;2024-01-10T07:30:46;11.55;;;5.50;;
84187;SDS011;74316;45.648;13.764;2024-01-10T07:33:12;9.93;;;5.13;;
84187;SDS011;74316;45.648;13.764;2024-01-10T07:35:37;10.63;;;5.30;;
84187;SDS011;74316;45.648;13.764;2024-01-10T07:38:04;9.60;;;5.10;;
84187;SDS011;74316;45.648;13.764;2024-01-10T07:40:32;10.88;;;5.45;;
84187;SDS011;74316;45.648;13.764;2024-01-10T07:42:58;7.78;;;4.97;;
84187;SDS011;74316;45.648;13.764;2024-01-10T07:45:24;6.63;;;5.22;;
84187;SDS011;74316;45.648;13.764;2024-01-10T07:47:49;17.65;;;5.40;;
84187;SDS011;74316;45.648;13.764;2024-01-10T07:50:16;14.10;;;5.85;;
84187;SDS011;74316;45.648;13.764;2024-01-10T07:52:42;13.40;;;5.50;;
84187;SDS011;74316;45.648;13.764;2024-01-10T07:55:08;12.15;;;5.50;;
84187;SDS011;74316;45.648;13.764;2024-01-10T07:57:35;11.50;;;5.65;;
84187;SDS011;74316;45.648;13.764;2024-01-10T08:00:07;13.63;;;5.40;;
84187;SDS011;74316;45.648;13.764;2024-01-10T08:02:38;8.02;;;5.20;;
84187;SDS011;74316;45.648;13.764;2024-01-10T08:05:04;10.40;;;5.68;;
84187;SDS011;74316;45.648;13.764;2024-01-10T08:07:33;14.63;;;5.50;;
84187;SDS011;74316;45.648;13.764;2024-01-10T08:12:32;12.88;;;5.22;;
84187;SDS011;74316;45.648;13.764;2024-01-10T08:14:58;11.10;;;5.85;;
84187;SDS011;74316;45.648;13.764;2024-01-10T08:17:24;7.90;;;5.55;;
84187;SDS011;74316;45.648;13.764;2024-01-10T08:19:50;10.38;;;5.40;;
84187;SDS011;74316;45.648;13.764;2024-01-10T08:22:17;8.90;;;5.28;;
84187;SDS011;74316;45.648;13.764;2024-01-10T08:24:44;9.98;;;5.85;;
84187;SDS011;74316;45.648;13.764;2024-01-10T08:27:11;7.43;;;5.38;;
84187;SDS011;74316;45.648;13.764;2024-01-10T08:29:37;8.05;;;5.38;;
84187;SDS011;74316;45.648;13.764;2024-01-10T08:32:03;10.75;;;5.72;;
84187;SDS011;74316;45.648;13.764;2024-01-10T08:34:29;21.42;;;5.50;;
84187;SDS011;74316;45.648;13.764;2024-01-10T08:36:55;7.93;;;5.22;;
84187;SDS011;74316;45.648;13.764;2024-01-10T08:39:21;6.93;;;5.28;;
84187;SDS011;74316;45.648;13.764;2024-01-10T08:41:49;11.48;;;5.78;;
84187;SDS011;74316;45.648;13.764;2024-01-10T08:44:15;8.80;;;5.55;;
84187;SDS011;74316;45.648;13.764;2024-01-10T08:46:40;7.72;;;5.05;;
84187;SDS011;74316;45.648;13.764;2024-01-10T08:49:06;6.10;;;5.00;;
84187;SDS011;74316;45.648;13.764;2024-01-10T08:51:32;9.05;;;5.38;;
84187;SDS011;74316;45.648;13.764;2024-01-10T08:53:59;9.07;;;5.03;;
84187;SDS011;74316;45.648;13.764;2024-01-10T08:56:25;8.20;;;5.65;;
84187;SDS011;74316;45.648;13.764;2024-01-10T08:58:51;8.32;;;5.10;;
84187;SDS011;74316;45.648;13.764;2024-01-10T09:01:16;7.32;;;5.28;;
84187;SDS011;74316;45.648;13.764;2024-01-10T09:03:43;12.18;;;5.50;;
84187;SDS011;74316;45.648;13.764;2024-01-10T09:06:09;5.93;;;5.20;;
84187;SDS011;74316;45.648;13.764;2024-01-10T09:08:34;6.35;;;5.18;;
84187;SDS011;74316;45.648;13.764;2024-01-10T09:11:00;7.03;;;5.25;;
84187;SDS011;74316;45.648;13.764;2024-01-10T09:13:26;16.85;;;5.35;;
84187;SDS011;74316;45.648;13.764;2024-01-10T09:15:52;7.57;;;5.30;;
84187;SDS011;74316;45.648;13.764;2024-01-10T09:18:17;6.18;;;5.40;;
84187;SDS011;74316;45.648;13.764;2024-01-10T09:20:43;7.25;;;5.05;;
84187;SDS011;74316;45.648;13.764;2024-01-10T09:23:09;8.75;;;5.72;;
84187;SDS011;74316;45.648;13.764;2024-01-10T09:25:36;5.95;;;5.05;;
84187;SDS011;74316;45.648;13.764;2024-01-10T09:28:04;7.07;;;5.30;;
84187;SDS011;74316;45.648;13.764;2024-01-10T09:30:30;6.97;;;5.75;;
84187;SDS011;74316;45.648;13.764;2024-01-10T09:32:56;5.50;;;5.00;;
84187;SDS011;74316;45.648;13.764;2024-01-10T09:35:21;7.75;;;5.30;;
84187;SDS011;74316;45.648;13.764;2024-01-10T09:37:47;6.78;;;5.63;;
84187;SDS011;74316;45.648;13.764;2024-01-10T09:40:14;7.80;;;5.43;;
84187;SDS011;74316;45.648;13.764;2024-01-10T09:42:41;7.28;;;5.47;;
84187;SDS011;74316;45.648;13.764;2024-01-10T09:45:07;9.70;;;5.32;;
84187;SDS011;74316;45.648;13.764;2024-01-10T09:47:35;6.78;;;5.60;;
84187;SDS011;74316;45.648;13.764;2024-01-10T09:50:04;5.93;;;5.30;;
84187;SDS011;74316;45.648;13.764;2024-01-10T09:52:31;5.40;;;4.88;;
84187;SDS011;74316;45.648;13.764;2024-01-10T09:55:00;6.55;;;5.38;;
84187;SDS011;74316;45.648;13.764;2024-01-10T09:57:26;10.75;;;5.57;;
84187;SDS011;74316;45.648;13.764;2024-01-10T09:59:52;6.00;;;5.25;;
84187;SDS011;74316;45.648;13.764;2024-01-10T10:02:19;10.40;;;5.38;;
84187;SDS011;74316;45.648;13.764;2024-01-10T10:04:48;6.22;;;5.50;;
84187;SDS011;74316;45.648;13.764;2024-01-10T10:07:16;6.50;;;5.43;;
84187;SDS011;74316;45.648;13.764;2024-01-10T10:09:42;6.40;;;5.57;;
84187;SDS011;74316;45.648;13.764;2024-01-10T10:12:09;5.97;;;5.47;;
84187;SDS011;74316;45.648;13.764;2024-01-10T10:14:35;5.80;;;5.25;;
84187;SDS011;74316;45.648;13.764;2024-01-10T10:17:14;6.07;;;5.40;;
84187;SDS011;74316;45.648;13.764;2024-01-10T10:19:41;7.40;;;5.35;;
84187;SDS011;74316;45.648;13.764;2024-01-10T10:22:07;5.68;;;5.18;;
84187;SDS011;74316;45.648;13.764;2024-01-10T10:24:34;5.63;;;5.13;;
84187;SDS011;74316;45.648;13.764;2024-01-10T10:27:00;7.45;;;4.97;;
84187;SDS011;74316;45.648;13.764;2024-01-10T10:29:25;6.25;;;5.13;;
84187;SDS011;74316;45.648;13.764;2024-01-10T10:31:51;5.40;;;4.90;;
84187;SDS011;74316;45.648;13.764;2024-01-10T10:34:20;6.15;;;5.30;;
84187;SDS011;74316;45.648;13.764;2024-01-10T10:36:48;5.32;;;4.82;;
84187;SDS011;74316;45.648;13.764;2024-01-10T10:39:16;6.03;;;5.35;;
84187;SDS011;74316;45.648;13.764;2024-01-10T10:41:42;6.25;;;5.05;;
84187;SDS011;74316;45.648;13.764;2024-01-10T10:44:09;5.13;;;4.72;;
84187;SDS011;74316;45.648;13.764;2024-01-10T10:46:35;6.38;;;5.15;;
84187;SDS011;74316;45.648;13.764;2024-01-10T10:49:04;7.43;;;4.93;;
84187;SDS011;74316;45.648;13.764;2024-01-10T10:51:36;5.50;;;5.00;;
84187;SDS011;74316;45.648;13.764;2024-01-10T10:54:02;9.43;;;5.40;;
84187;SDS011;74316;45.648;13.764;2024-01-10T10:56:29;9.15;;;5.10;;
84187;SDS011;74316;45.648;13.764;2024-01-10T10:59:15;6.40;;;5.57;;
84187;SDS011;74316;45.648;13.764;2024-01-10T11:01:41;6.03;;;5.45;;
84187;SDS011;74316;45.648;13.764;2024-01-10T11:04:09;5.78;;;5.20;;
84187;SDS011;74316;45.648;13.764;2024-01-10T11:06:36;5.63;;;5.10;;
84187;SDS011;74316;45.648;13.764;2024-01-10T11:09:12;7.38;;;5.45;;
84187;SDS011;74316;45.648;13.764;2024-01-10T11:11:55;5.57;;;5.03;;
84187;SDS011;74316;45.648;13.764;2024-01-10T11:20:13;5.38;;;4.90;;
84187;SDS011;74316;45.648;13.764;2024-01-10T11:25:40;6.15;;;4.70;;
84187;SDS011;74316;45.648;13.764;2024-01-10T11:28:06;5.50;;;5.00;;
84187;SDS011;74316;45.648;13.764;2024-01-10T11:30:35;5.15;;;4.65;;
84187;SDS011;74316;45.648;13.764;2024-01-10T11:33:39;5.40;;;4.90;;
84187;SDS011;74316;45.648;13.764;2024-01-10T11:41:27;5.78;;;4.88;;
84187;SDS011;74316;45.648;13.764;2024-01-10T11:46:35;4.72;;;4.43;;
84187;SDS011;74316;45.648;13.764;2024-01-10T11:49:10;5.53;;;4.90;;
84187;SDS011;74316;45.648;13.764;2024-01-10T11:51:38;5.50;;;5.00;;
84187;SDS011;74316;45.648;13.764;2024-01-10T11:54:04;5.43;;;4.85;;
84187;SDS011;74316;45.648;13.764;2024-01-10T11:56:40;4.95;;;4.53;;
84187;SDS011;74316;45.648;13.764;2024-01-10T11:59:11;5.50;;;4.97;;
84187;SDS011;74316;45.648;13.764;2024-01-10T12:01:41;4.88;;;4.47;;
84187;SDS011;74316;45.648;13.764;2024-01-10T12:04:08;5.05;;;4.45;;
84187;SDS011;74316;45.648;13.764;2024-01-10T12:06:36;5.32;;;4.82;;
84187;SDS011;74316;45.648;13.764;2024-01-10T12:09:03;5.30;;;4.90;;
84187;SDS011;74316;45.648;13.764;2024-01-10T12:11:38;5.07;;;4.47;;
84187;SDS011;74316;45.648;13.764;2024-01-10T12:14:05;5.18;;;4.68;;
84187;SDS011;74316;45.648;13.764;2024-01-10T12:16:34;4.97;;;4.60;;
84187;SDS011;74316;45.648;13.764;2024-01-10T12:19:00;5.20;;;4.70;;
84187;SDS011;74316;45.648;13.764;2024-01-10T12:21:26;4.97;;;4.40;;
84187;SDS011;74316;45.648;13.764;2024-01-10T12:23:52;5.90;;;4.65;;
84187;SDS011;74316;45.648;13.764;2024-01-10T12:26:17;5.15;;;4.75;;
84187;SDS011;74316;45.648;13.764;2024-01-10T12:28:54;5.18;;;4.68;;
84187;SDS011;74316;45.648;13.764;2024-01-10T12:31:20;5.28;;;4.78;;
84187;SDS011;74316;45.648;13.764;2024-01-10T12:33:48;4.93;;;4.53;;
84187;SDS011;74316;45.648;13.764;2024-01-10T12:38:45;5.30;;;4.80;;
84187;SDS011;74316;45.648;13.764;2024-01-10T12:41:11;6.18;;;5.57;;
84187;SDS011;74316;45.648;13.764;2024-01-10T12:43:37;8.27;;;5.90;;
84187;SDS011;74316;45.648;13.764;2024-01-10T12:46:06;7.95;;;5.97;;
84187;SDS011;74316;45.648;13.764;2024-01-10T12:48:33;11.18;;;6.60;;
84187;SDS011;74316;45.648;13.764;2024-01-10T12:51:05;7.68;;;6.70;;
84187;SDS011;74316;45.648;13.764;2024-01-10T12:53:33;7.32;;;6.65;;
84187;SDS011;74316;45.648;13.764;2024-01-10T12:56:04;8.07;;;6.95;;
84187;SDS011;74316;45.648;13.764;2024-01-10T12:58:30;12.57;;;7.72;;
84187;SDS011;74316;45.648;13.764;2024-01-10T13:00:56;9.45;;;7.53;;
84187;SDS011;74316;45.648;13.764;2024-01-10T13:03:23;7.03;;;6.30;;
84187;SDS011;74316;45.648;13.764;2024-01-10T13:05:49;11.25;;;7.38;;
84187;SDS011;74316;45.648;13.764;2024-01-10T13:08:17;7.47;;;6.70;;
84187;SDS011;74316;45.648;13.764;2024-01-10T13:10:44;7.45;;;6.75;;
84187;SDS011;74316;45.648;13.764;2024-01-10T13:13:10;7.50;;;6.70;;
84187;SDS011;74316;45.648;13.764;2024-01-10T13:15:37;9.05;;;6.57;;
84187;SDS011;74316;45.648;13.764;2024-01-10T13:18:03;7.03;;;6.38;;
84187;SDS011;74316;45.648;13.764;2024-01-10T13:20:30;8.70;;;6.65;;
84187;SDS011;74316;45.648;13.764;2024-01-10T13:22:55;7.25;;;6.50;;
84187;SDS011;74316;45.648;13.764;2024-01-10T13:25:21;7.78;;;5.90;;
84187;SDS011;74316;45.648;13.764;2024-01-10T13:27:51;8.82;;;5.53;;
84187;SDS011;74316;45.648;13.764;2024-01-10T13:30:19;7.97;;;6.00;;
84187;SDS011;74316;45.648;13.764;2024-01-10T13:32:45;8.27;;;6.25;;
84187;SDS011;74316;45.648;13.764;2024-01-10T13:35:12;6.82;;;6.22;;
84187;SDS011;74316;45.648;13.764;2024-01-10T13:37:39;5.85;;;5.38;;
84187;SDS011;74316;45.648;13.764;2024-01-10T13:40:09;8.48;;;5.82;;
84187;SDS011;74316;45.648;13.764;2024-01-10T13:42:37;6.38;;;5.75;;
84187;SDS011;74316;45.648;13.764;2024-01-10T13:45:06;5.95;;;5.45;;
84187;SDS011;74316;45.648;13.764;2024-01-10T13:47:33;5.70;;;5.28;;
84187;SDS011;74316;45.648;13.764;2024-01-10T13:49:59;6.18;;;5.57;;
84187;SDS011;74316;45.648;13.764;2024-01-10T13:52:25;6.22;;;5.60;;
84187;SDS011;74316;45.648;13.764;2024-01-10T13:54:54;5.72;;;5.22;;
84187;SDS011;74316;45.648;13.764;2024-01-10T13:57:21;6.60;;;5.93;;
84187;SDS011;74316;45.648;13.764;2024-01-10T13:59:47;7.45;;;5.20;;
84187;SDS011;74316;45.648;13.764;2024-01-10T14:02:12;6.60;;;5.35;;
84187;SDS011;74316;45.648;13.764;2024-01-10T14:07:09;7.38;;;5.95;;
84187;SDS011;74316;45.648;13.764;2024-01-10T14:09:35;7.30;;;5.35;;
84187;SDS011;74316;45.648;13.764;2024-01-10T14:12:01;9.05;;;5.53;;
84187;SDS011;74316;45.648;13.764;2024-01-10T14:14:27;5.88;;;5.38;;
84187;SDS011;74316;45.648;13.764;2024-01-10T14:16:53;5.50;;;5.00;;
84187;SDS011;74316;45.648;13.764;2024-01-10T14:19:19;5.90;;;5.30;;
84187;SDS011;74316;45.648;13.764;2024-01-10T14:21:45;5.63;;;5.22;;
84187;SDS011;74316;45.648;13.764;2024-01-10T14:24:11;5.40;;;4.97;;
84187;SDS011;74316;45.648;13.764;2024-01-10T14:26:38;5.28;;;4.78;;
84187;SDS011;74316;45.648;13.764;2024-01-10T14:29:06;7.10;;;5.35;;
84187;SDS011;74316;45.648;13.764;2024-01-10T14:31:32;5.50;;;4.93;;
84187;SDS011;74316;45.648;13.764;2024-01-10T14:33:58;5.85;;;5.35;;
84187;SDS011;74316;45.648;13.764;2024-01-10T14:36:23;9.23;;;5.25;;
84187;SDS011;74316;45.648;13.764;2024-01-10T14:38:49;6.45;;;5.15;;
84187;SDS011;74316;45.648;13.764;2024-01-10T14:41:16;6.82;;;5.65;;
84187;SDS011;74316;45.648;13.764;2024-01-10T14:43:42;6.80;;;4.78;;
84187;SDS011;74316;45.648;13.764;2024-01-10T14:46:07;5.75;;;5.25;;
84187;SDS011;74316;45.648;13.764;2024-01-10T14:48:35;11.02;;;5.85;;
84187;SDS011;74316;45.648;13.764;2024-01-10T14:51:01;7.75;;;5.35;;
84187;SDS011;74316;45.648;13.764;2024-01-10T14:53:27;8.68;;;4.97;;